sensor_id;sensor_type;location;lat;lon;timestamp;P1;durP1;ratioP1;P2;durP2;ratioP2
54849;SDS011;47660;51.334;12.396;2023-06-26T00:01:25;4.10;;;2.85;;
54849;SDS011;47660;51.334;12.396;2023-06-26T00:03:54;5.05;;;3.05;;
54849;SDS011;47660;51.334;12.396;2023-06-26T00:06:22;3.95;;;2.90;;
54849;SDS011;47660;51.334;12.396;2023-06-26T00:08:54;4.35;;;3.05;;
54849;SDS011;47660;51.334;12.396;2023-06-26T00:11:20;4.32;;;2.90;;
54849;SDS011;47660;51.334;12.396;2023-06-26T00:13:46;3.65;;;2.78;;
54849;SDS011;47660;51.334;12.396;2023-06-26T00:16:17;5.18;;;2.72;;
54849;SDS011;47660;51.334;12.396;2023-06-26T00:18:42;5.85;;;2.42;;
54849;SDS011;47660;51.334;12.396;2023-06-26T00:21:10;4.40;;;2.58;;
54849;SDS011;47660;51.334;12.396;2023-06-26T00:23:38;4.68;;;3.47;;
54849;SDS011;47660;51.334;12.396;2023-06-26T00:26:08;7.18;;;2.95;;
54849;SDS011;47660;51.334;12.396;2023-06-26T00:28:35;4.18;;;2.63;;
54849;SDS011;47660;51.334;12.396;2023-06-26T00:31:03;3.92;;;2.83;;
54849;SDS011;47660;51.334;12.396;2023-06-26T00:33:28;4.22;;;2.72;;
54849;SDS011;47660;51.334;12.396;2023-06-26T00:35:56;4.43;;;2.88;;
54849;SDS011;47660;51.334;12.396;2023-06-26T00:38:23;3.78;;;2.88;;
54849;SDS011;47660;51.334;12.396;2023-06-26T00:40:49;4.53;;;3.15;;
54849;SDS011;47660;51.334;12.396;2023-06-26T00:43:14;3.70;;;2.72;;
54849;SDS011;47660;51.334;12.396;2023-06-26T00:45:40;3.88;;;2.47;;
54849;SDS011;47660;51.334;12.396;2023-06-26T00:48:05;3.45;;;2.70;;
54849;SDS011;47660;51.334;12.396;2023-06-26T00:50:31;3.97;;;3.05;;
54849;SDS011;47660;51.334;12.396;2023-06-26T00:52:59;3.85;;;2.88;;
54849;SDS011;47660;51.334;12.396;2023-06-26T00:55:26;5.10;;;3.28;;
54849;SDS011;47660;51.334;12.396;2023-06-26T00:57:53;4.38;;;2.70;;
54849;SDS011;47660;51.334;12.396;2023-06-26T01:00:22;4.88;;;2.88;;
54849;SDS011;47660;51.334;12.396;2023-06-26T01:02:48;4.13;;;3.00;;
54849;SDS011;47660;51.334;12.396;2023-06-26T01:05:13;5.30;;;3.28;;
54849;SDS011;47660;51.334;12.396;2023-06-26T01:07:48;5.05;;;2.83;;
54849;SDS011;47660;51.334;12.396;2023-06-26T01:10:14;3.90;;;2.65;;
54849;SDS011;47660;51.334;12.396;2023-06-26T01:12:40;4.18;;;2.97;;
54849;SDS011;47660;51.334;12.396;2023-06-26T01:15:08;4.22;;;3.00;;
54849;SDS011;47660;51.334;12.396;2023-06-26T01:17:37;4.20;;;2.90;;
54849;SDS011;47660;51.334;12.396;2023-06-26T01:20:10;3.50;;;2.80;;
54849;SDS011;47660;51.334;12.396;2023-06-26T01:28:06;3.85;;;2.63;;
54849;SDS011;47660;51.334;12.396;2023-06-26T01:30:34;5.45;;;3.40;;
54849;SDS011;47660;51.334;12.396;2023-06-26T01:33:03;3.42;;;2.92;;
54849;SDS011;47660;51.334;12.396;2023-06-26T01:35:32;5.47;;;2.90;;
54849;SDS011;47660;51.334;12.396;2023-06-26T01:40:42;4.20;;;2.80;;
54849;SDS011;47660;51.334;12.396;2023-06-26T01:43:11;4.55;;;3.08;;
54849;SDS011;47660;51.334;12.396;2023-06-26T01:45:50;4.20;;;3.17;;
54849;SDS011;47660;51.334;12.396;2023-06-26T01:48:20;6.10;;;2.95;;
54849;SDS011;47660;51.334;12.396;2023-06-26T01:50:52;4.90;;;3.05;;
54849;SDS011;47660;51.334;12.396;2023-06-26T01:53:19;4.05;;;2.75;;
54849;SDS011;47660;51.334;12.396;2023-06-26T01:56:04;4.22;;;2.60;;
54849;SDS011;47660;51.334;12.396;2023-06-26T01:58:35;4.75;;;3.15;;
54849;SDS011;47660;51.334;12.396;2023-06-26T02:01:05;5.90;;;3.30;;
54849;SDS011;47660;51.334;12.396;2023-06-26T02:03:31;3.92;;;2.83;;
54849;SDS011;47660;51.334;12.396;2023-06-26T02:05:56;4.05;;;2.80;;
54849;SDS011;47660;51.334;12.396;2023-06-26T02:08:24;5.63;;;3.50;;
54849;SDS011;47660;51.334;12.396;2023-06-26T02:10:50;3.83;;;2.83;;
54849;SDS011;47660;51.334;12.396;2023-06-26T02:13:15;4.80;;;3.30;;
54849;SDS011;47660;51.334;12.396;2023-06-26T02:15:41;4.47;;;2.80;;
54849;SDS011;47660;51.334;12.396;2023-06-26T02:18:06;4.18;;;2.80;;
54849;SDS011;47660;51.334;12.396;2023-06-26T02:20:31;4.35;;;3.17;;
54849;SDS011;47660;51.334;12.396;2023-06-26T02:22:58;4.45;;;2.97;;
54849;SDS011;47660;51.334;12.396;2023-06-26T02:25:26;5.38;;;3.30;;
54849;SDS011;47660;51.334;12.396;2023-06-26T02:27:51;3.80;;;2.88;;
54849;SDS011;47660;51.334;12.396;2023-06-26T02:30:20;9.27;;;3.20;;
54849;SDS011;47660;51.334;12.396;2023-06-26T02:32:45;4.57;;;3.13;;
54849;SDS011;47660;51.334;12.396;2023-06-26T02:35:10;4.85;;;3.40;;
54849;SDS011;47660;51.334;12.396;2023-06-26T02:37:36;7.22;;;3.35;;
54849;SDS011;47660;51.334;12.396;2023-06-26T02:40:02;4.28;;;3.08;;
54849;SDS011;47660;51.334;12.396;2023-06-26T02:42:31;5.45;;;3.40;;
54849;SDS011;47660;51.334;12.396;2023-06-26T02:44:57;6.50;;;3.13;;
54849;SDS011;47660;51.334;12.396;2023-06-26T02:47:26;5.70;;;3.30;;
54849;SDS011;47660;51.334;12.396;2023-06-26T02:49:52;6.38;;;3.92;;
54849;SDS011;47660;51.334;12.396;2023-06-26T02:52:17;6.63;;;3.28;;
54849;SDS011;47660;51.334;12.396;2023-06-26T02:54:44;5.85;;;3.72;;
54849;SDS011;47660;51.334;12.396;2023-06-26T02:57:11;5.22;;;3.65;;
54849;SDS011;47660;51.334;12.396;2023-06-26T02:59:37;6.22;;;3.58;;
54849;SDS011;47660;51.334;12.396;2023-06-26T03:02:06;5.40;;;3.60;;
54849;SDS011;47660;51.334;12.396;2023-06-26T03:04:32;7.07;;;3.30;;
54849;SDS011;47660;51.334;12.396;2023-06-26T03:07:02;5.20;;;3.03;;
54849;SDS011;47660;51.334;12.396;2023-06-26T03:09:30;11.07;;;3.83;;
54849;SDS011;47660;51.334;12.396;2023-06-26T03:11:58;5.88;;;3.30;;
54849;SDS011;47660;51.334;12.396;2023-06-26T03:14:26;3.75;;;2.97;;
54849;SDS011;47660;51.334;12.396;2023-06-26T03:16:52;7.55;;;3.63;;
54849;SDS011;47660;51.334;12.396;2023-06-26T03:19:18;7.68;;;3.80;;
54849;SDS011;47660;51.334;12.396;2023-06-26T03:21:45;6.30;;;3.50;;
54849;SDS011;47660;51.334;12.396;2023-06-26T03:24:14;8.98;;;3.30;;
54849;SDS011;47660;51.334;12.396;2023-06-26T03:26:40;5.68;;;2.70;;
54849;SDS011;47660;51.334;12.396;2023-06-26T03:29:05;5.20;;;3.35;;
54849;SDS011;47660;51.334;12.396;2023-06-26T03:31:33;6.63;;;3.40;;
54849;SDS011;47660;51.334;12.396;2023-06-26T03:33:59;6.50;;;3.67;;
54849;SDS011;47660;51.334;12.396;2023-06-26T03:36:27;6.63;;;3.30;;
54849;SDS011;47660;51.334;12.396;2023-06-26T03:38:55;4.25;;;3.05;;
54849;SDS011;47660;51.334;12.396;2023-06-26T03:41:23;8.35;;;3.53;;
54849;SDS011;47660;51.334;12.396;2023-06-26T03:43:49;6.00;;;4.05;;
54849;SDS011;47660;51.334;12.396;2023-06-26T03:46:14;6.30;;;3.92;;
54849;SDS011;47660;51.334;12.396;2023-06-26T03:48:40;4.97;;;3.47;;
54849;SDS011;47660;51.334;12.396;2023-06-26T03:51:06;10.18;;;3.25;;
54849;SDS011;47660;51.334;12.396;2023-06-26T03:53:32;4.97;;;3.38;;
54849;SDS011;47660;51.334;12.396;2023-06-26T03:56:00;4.45;;;3.10;;
54849;SDS011;47660;51.334;12.396;2023-06-26T03:58:25;5.70;;;3.50;;
54849;SDS011;47660;51.334;12.396;2023-06-26T04:00:51;5.60;;;3.60;;
54849;SDS011;47660;51.334;12.396;2023-06-26T04:03:22;5.78;;;3.65;;
54849;SDS011;47660;51.334;12.396;2023-06-26T04:05:50;6.97;;;3.60;;
54849;SDS011;47660;51.334;12.396;2023-06-26T04:08:15;5.25;;;3.42;;
54849;SDS011;47660;51.334;12.396;2023-06-26T04:10:40;5.82;;;2.97;;
54849;SDS011;47660;51.334;12.396;2023-06-26T04:13:06;4.97;;;2.83;;
54849;SDS011;47660;51.334;12.396;2023-06-26T04:15:31;4.65;;;3.53;;
54849;SDS011;47660;51.334;12.396;2023-06-26T04:17:57;5.50;;;2.97;;
54849;SDS011;47660;51.334;12.396;2023-06-26T04:20:22;5.10;;;3.50;;
54849;SDS011;47660;51.334;12.396;2023-06-26T04:22:48;5.03;;;3.40;;
54849;SDS011;47660;51.334;12.396;2023-06-26T04:25:13;4.72;;;3.35;;
54849;SDS011;47660;51.334;12.396;2023-06-26T04:27:39;6.32;;;3.63;;
54849;SDS011;47660;51.334;12.396;2023-06-26T04:30:04;5.03;;;3.42;;
54849;SDS011;47660;51.334;12.396;2023-06-26T04:32:33;5.03;;;3.33;;
54849;SDS011;47660;51.334;12.396;2023-06-26T04:34:58;3.80;;;3.10;;
54849;SDS011;47660;51.334;12.396;2023-06-26T04:37:23;5.45;;;3.22;;
54849;SDS011;47660;51.334;12.396;2023-06-26T04:39:49;5.32;;;3.20;;
54849;SDS011;47660;51.334;12.396;2023-06-26T04:42:15;4.28;;;3.40;;
54849;SDS011;47660;51.334;12.396;2023-06-26T04:44:40;4.18;;;2.90;;
54849;SDS011;47660;51.334;12.396;2023-06-26T04:47:06;5.10;;;3.60;;
54849;SDS011;47660;51.334;12.396;2023-06-26T04:49:35;5.90;;;3.45;;
54849;SDS011;47660;51.334;12.396;2023-06-26T04:52:00;5.03;;;3.20;;
54849;SDS011;47660;51.334;12.396;2023-06-26T04:54:28;5.53;;;3.60;;
54849;SDS011;47660;51.334;12.396;2023-06-26T04:56:54;4.88;;;3.40;;
54849;SDS011;47660;51.334;12.396;2023-06-26T04:59:19;4.90;;;3.47;;
54849;SDS011;47660;51.334;12.396;2023-06-26T05:01:45;5.78;;;3.40;;
54849;SDS011;47660;51.334;12.396;2023-06-26T05:04:13;4.65;;;3.17;;
54849;SDS011;47660;51.334;12.396;2023-06-26T05:06:43;4.35;;;3.55;;
54849;SDS011;47660;51.334;12.396;2023-06-26T05:09:10;4.28;;;3.00;;
54849;SDS011;47660;51.334;12.396;2023-06-26T05:11:41;5.28;;;3.92;;
54849;SDS011;47660;51.334;12.396;2023-06-26T05:14:08;5.72;;;3.58;;
54849;SDS011;47660;51.334;12.396;2023-06-26T05:16:38;6.93;;;3.38;;
54849;SDS011;47660;51.334;12.396;2023-06-26T05:19:04;5.18;;;3.30;;
54849;SDS011;47660;51.334;12.396;2023-06-26T05:21:31;7.22;;;3.33;;
54849;SDS011;47660;51.334;12.396;2023-06-26T05:23:57;5.53;;;3.25;;
54849;SDS011;47660;51.334;12.396;2023-06-26T05:26:24;3.90;;;3.05;;
54849;SDS011;47660;51.334;12.396;2023-06-26T05:28:50;4.00;;;2.80;;
54849;SDS011;47660;51.334;12.396;2023-06-26T05:31:19;6.50;;;3.20;;
54849;SDS011;47660;51.334;12.396;2023-06-26T05:33:47;6.43;;;3.47;;
54849;SDS011;47660;51.334;12.396;2023-06-26T05:36:16;5.15;;;3.10;;
54849;SDS011;47660;51.334;12.396;2023-06-26T05:38:43;5.00;;;3.70;;
54849;SDS011;47660;51.334;12.396;2023-06-26T05:41:11;6.55;;;3.60;;
54849;SDS011;47660;51.334;12.396;2023-06-26T05:43:37;4.70;;;3.35;;
54849;SDS011;47660;51.334;12.396;2023-06-26T05:46:04;6.53;;;3.17;;
54849;SDS011;47660;51.334;12.396;2023-06-26T05:48:30;4.93;;;3.75;;
54849;SDS011;47660;51.334;12.396;2023-06-26T05:50:55;4.60;;;3.30;;
54849;SDS011;47660;51.334;12.396;2023-06-26T05:53:21;6.90;;;3.80;;
54849;SDS011;47660;51.334;12.396;2023-06-26T05:55:47;7.07;;;3.58;;
54849;SDS011;47660;51.334;12.396;2023-06-26T05:58:13;5.85;;;3.40;;
54849;SDS011;47660;51.334;12.396;2023-06-26T06:00:39;5.38;;;3.63;;
54849;SDS011;47660;51.334;12.396;2023-06-26T06:03:06;4.78;;;3.22;;
54849;SDS011;47660;51.334;12.396;2023-06-26T06:05:35;5.25;;;3.70;;
54849;SDS011;47660;51.334;12.396;2023-06-26T06:08:01;5.18;;;3.60;;
54849;SDS011;47660;51.334;12.396;2023-06-26T06:10:28;7.03;;;3.78;;
54849;SDS011;47660;51.334;12.396;2023-06-26T06:12:54;5.50;;;3.58;;
54849;SDS011;47660;51.334;12.396;2023-06-26T06:15:19;7.88;;;3.70;;
54849;SDS011;47660;51.334;12.396;2023-06-26T06:17:45;6.55;;;3.67;;
54849;SDS011;47660;51.334;12.396;2023-06-26T06:20:12;5.22;;;3.63;;
54849;SDS011;47660;51.334;12.396;2023-06-26T06:22:38;4.32;;;3.17;;
54849;SDS011;47660;51.334;12.396;2023-06-26T06:25:03;7.22;;;4.00;;
54849;SDS011;47660;51.334;12.396;2023-06-26T06:27:29;4.53;;;3.30;;
54849;SDS011;47660;51.334;12.396;2023-06-26T06:29:55;4.40;;;3.47;;
54849;SDS011;47660;51.334;12.396;2023-06-26T06:32:21;6.70;;;3.58;;
54849;SDS011;47660;51.334;12.396;2023-06-26T06:34:46;4.55;;;3.22;;
54849;SDS011;47660;51.334;12.396;2023-06-26T06:37:12;5.95;;;3.53;;
54849;SDS011;47660;51.334;12.396;2023-06-26T06:39:42;4.60;;;3.17;;
54849;SDS011;47660;51.334;12.396;2023-06-26T06:42:07;5.20;;;4.40;;
54849;SDS011;47660;51.334;12.396;2023-06-26T06:44:33;4.70;;;3.75;;
54849;SDS011;47660;51.334;12.396;2023-06-26T06:46:58;7.15;;;4.03;;
54849;SDS011;47660;51.334;12.396;2023-06-26T06:49:26;4.47;;;3.33;;
54849;SDS011;47660;51.334;12.396;2023-06-26T06:51:52;5.47;;;3.30;;
54849;SDS011;47660;51.334;12.396;2023-06-26T06:54:17;7.10;;;3.72;;
54849;SDS011;47660;51.334;12.396;2023-06-26T06:56:44;6.35;;;3.60;;
54849;SDS011;47660;51.334;12.396;2023-06-26T06:59:10;6.68;;;3.75;;
54849;SDS011;47660;51.334;12.396;2023-06-26T07:01:35;8.85;;;3.75;;
54849;SDS011;47660;51.334;12.396;2023-06-26T07:04:01;5.43;;;3.78;;
54849;SDS011;47660;51.334;12.396;2023-06-26T07:06:29;7.68;;;5.28;;
54849;SDS011;47660;51.334;12.396;2023-06-26T07:08:55;6.72;;;4.00;;
54849;SDS011;47660;51.334;12.396;2023-06-26T07:11:20;8.10;;;3.67;;
54849;SDS011;47660;51.334;12.396;2023-06-26T07:13:45;5.15;;;4.00;;
54849;SDS011;47660;51.334;12.396;2023-06-26T07:16:13;5.72;;;4.05;;
54849;SDS011;47660;51.334;12.396;2023-06-26T07:18:40;8.65;;;3.70;;
54849;SDS011;47660;51.334;12.396;2023-06-26T07:21:07;5.30;;;3.75;;
54849;SDS011;47660;51.334;12.396;2023-06-26T07:23:33;5.55;;;3.60;;
54849;SDS011;47660;51.334;12.396;2023-06-26T07:25:59;5.43;;;3.88;;
54849;SDS011;47660;51.334;12.396;2023-06-26T07:28:24;6.00;;;3.63;;
54849;SDS011;47660;51.334;12.396;2023-06-26T07:30:52;6.88;;;3.58;;
54849;SDS011;47660;51.334;12.396;2023-06-26T07:33:18;5.50;;;3.63;;
54849;SDS011;47660;51.334;12.396;2023-06-26T07:35:43;4.75;;;3.60;;
54849;SDS011;47660;51.334;12.396;2023-06-26T07:38:09;5.10;;;3.63;;
54849;SDS011;47660;51.334;12.396;2023-06-26T07:40:34;7.68;;;3.40;;
54849;SDS011;47660;51.334;12.396;2023-06-26T07:43:00;5.10;;;3.50;;
54849;SDS011;47660;51.334;12.396;2023-06-26T07:45:28;4.78;;;3.40;;
54849;SDS011;47660;51.334;12.396;2023-06-26T07:47:53;4.10;;;3.30;;
54849;SDS011;47660;51.334;12.396;2023-06-26T07:50:41;6.50;;;3.65;;
54849;SDS011;47660;51.334;12.396;2023-06-26T07:53:11;5.72;;;4.00;;
54849;SDS011;47660;51.334;12.396;2023-06-26T07:55:39;6.25;;;3.85;;
54849;SDS011;47660;51.334;12.396;2023-06-26T07:58:08;5.40;;;3.60;;
54849;SDS011;47660;51.334;12.396;2023-06-26T08:00:42;4.93;;;3.67;;
54849;SDS011;47660;51.334;12.396;2023-06-26T08:03:20;4.85;;;3.55;;
54849;SDS011;47660;51.334;12.396;2023-06-26T08:06:00;6.38;;;4.00;;
54849;SDS011;47660;51.334;12.396;2023-06-26T08:08:29;4.63;;;3.38;;
54849;SDS011;47660;51.334;12.396;2023-06-26T08:10:54;4.07;;;3.50;;
54849;SDS011;47660;51.334;12.396;2023-06-26T08:13:22;4.93;;;3.90;;
54849;SDS011;47660;51.334;12.396;2023-06-26T08:15:50;5.60;;;3.80;;
54849;SDS011;47660;51.334;12.396;2023-06-26T08:18:16;6.32;;;3.90;;
54849;SDS011;47660;51.334;12.396;2023-06-26T08:20:42;5.57;;;4.13;;
54849;SDS011;47660;51.334;12.396;2023-06-26T08:23:08;6.38;;;3.67;;
54849;SDS011;47660;51.334;12.396;2023-06-26T08:25:33;5.25;;;3.72;;
54849;SDS011;47660;51.334;12.396;2023-06-26T08:27:59;6.30;;;3.97;;
54849;SDS011;47660;51.334;12.396;2023-06-26T08:30:24;5.15;;;3.58;;
54849;SDS011;47660;51.334;12.396;2023-06-26T08:32:53;5.82;;;4.03;;
54849;SDS011;47660;51.334;12.396;2023-06-26T08:35:21;6.65;;;4.03;;
54849;SDS011;47660;51.334;12.396;2023-06-26T08:37:46;5.72;;;3.95;;
54849;SDS011;47660;51.334;12.396;2023-06-26T08:40:12;5.13;;;3.83;;
54849;SDS011;47660;51.334;12.396;2023-06-26T08:42:44;4.85;;;3.75;;
54849;SDS011;47660;51.334;12.396;2023-06-26T08:45:09;6.65;;;4.32;;
54849;SDS011;47660;51.334;12.396;2023-06-26T08:47:35;6.43;;;3.97;;
54849;SDS011;47660;51.334;12.396;2023-06-26T08:55:23;8.40;;;4.05;;
54849;SDS011;47660;51.334;12.396;2023-06-26T08:57:51;5.32;;;3.83;;
54849;SDS011;47660;51.334;12.396;2023-06-26T09:00:18;4.50;;;4.00;;
54849;SDS011;47660;51.334;12.396;2023-06-26T09:02:44;4.43;;;3.65;;
54849;SDS011;47660;51.334;12.396;2023-06-26T09:05:10;7.43;;;3.55;;
54849;SDS011;47660;51.334;12.396;2023-06-26T09:07:36;9.25;;;3.58;;
54849;SDS011;47660;51.334;12.396;2023-06-26T09:10:02;8.52;;;3.90;;
54849;SDS011;47660;51.334;12.396;2023-06-26T09:12:29;5.50;;;4.00;;
54849;SDS011;47660;51.334;12.396;2023-06-26T09:14:56;7.78;;;4.22;;
54849;SDS011;47660;51.334;12.396;2023-06-26T09:17:25;5.80;;;3.60;;
54849;SDS011;47660;51.334;12.396;2023-06-26T09:19:55;3.90;;;3.20;;
54849;SDS011;47660;51.334;12.396;2023-06-26T09:22:21;5.72;;;3.42;;
54849;SDS011;47660;51.334;12.396;2023-06-26T09:24:48;6.18;;;3.70;;
54849;SDS011;47660;51.334;12.396;2023-06-26T09:27:16;6.45;;;3.38;;
54849;SDS011;47660;51.334;12.396;2023-06-26T09:29:41;5.68;;;4.00;;
54849;SDS011;47660;51.334;12.396;2023-06-26T09:32:10;5.60;;;3.40;;
54849;SDS011;47660;51.334;12.396;2023-06-26T09:34:37;6.40;;;3.28;;
54849;SDS011;47660;51.334;12.396;2023-06-26T09:37:07;5.82;;;3.25;;
54849;SDS011;47660;51.334;12.396;2023-06-26T09:39:33;5.63;;;3.92;;
54849;SDS011;47660;51.334;12.396;2023-06-26T09:42:00;5.05;;;3.35;;
54849;SDS011;47660;51.334;12.396;2023-06-26T09:44:27;5.55;;;3.90;;
54849;SDS011;47660;51.334;12.396;2023-06-26T09:46:52;5.85;;;3.53;;
54849;SDS011;47660;51.334;12.396;2023-06-26T09:49:20;5.43;;;4.05;;
54849;SDS011;47660;51.334;12.396;2023-06-26T09:51:48;4.22;;;3.25;;
54849;SDS011;47660;51.334;12.396;2023-06-26T09:54:18;6.60;;;3.00;;
54849;SDS011;47660;51.334;12.396;2023-06-26T09:56:51;5.88;;;3.42;;
54849;SDS011;47660;51.334;12.396;2023-06-26T09:59:19;5.72;;;3.40;;
54849;SDS011;47660;51.334;12.396;2023-06-26T10:01:45;5.47;;;3.35;;
54849;SDS011;47660;51.334;12.396;2023-06-26T10:04:11;4.72;;;3.15;;
54849;SDS011;47660;51.334;12.396;2023-06-26T10:06:39;3.97;;;3.10;;
54849;SDS011;47660;51.334;12.396;2023-06-26T10:09:10;5.05;;;3.17;;
54849;SDS011;47660;51.334;12.396;2023-06-26T10:14:39;5.50;;;3.53;;
54849;SDS011;47660;51.334;12.396;2023-06-26T10:17:10;4.65;;;3.35;;
54849;SDS011;47660;51.334;12.396;2023-06-26T10:19:39;4.97;;;3.45;;
54849;SDS011;47660;51.334;12.396;2023-06-26T10:22:08;4.75;;;3.30;;
54849;SDS011;47660;51.334;12.396;2023-06-26T10:24:35;4.75;;;3.30;;
54849;SDS011;47660;51.334;12.396;2023-06-26T10:27:28;4.93;;;3.30;;
54849;SDS011;47660;51.334;12.396;2023-06-26T10:30:01;6.10;;;3.17;;
54849;SDS011;47660;51.334;12.396;2023-06-26T10:32:31;6.00;;;3.28;;
54849;SDS011;47660;51.334;12.396;2023-06-26T10:34:58;5.85;;;3.35;;
54849;SDS011;47660;51.334;12.396;2023-06-26T10:37:43;7.22;;;3.58;;
54849;SDS011;47660;51.334;12.396;2023-06-26T10:40:09;3.70;;;3.30;;
54849;SDS011;47660;51.334;12.396;2023-06-26T10:42:36;3.28;;;2.97;;
54849;SDS011;47660;51.334;12.396;2023-06-26T10:45:09;4.57;;;3.20;;
54849;SDS011;47660;51.334;12.396;2023-06-26T10:47:52;4.57;;;3.20;;
54849;SDS011;47660;51.334;12.396;2023-06-26T10:50:25;3.30;;;2.85;;
54849;SDS011;47660;51.334;12.396;2023-06-26T10:58:41;5.68;;;3.30;;
54849;SDS011;47660;51.334;12.396;2023-06-26T11:01:24;5.70;;;3.83;;
54849;SDS011;47660;51.334;12.396;2023-06-26T11:06:28;4.93;;;2.97;;
54849;SDS011;47660;51.334;12.396;2023-06-26T11:08:55;4.38;;;3.30;;
54849;SDS011;47660;51.334;12.396;2023-06-26T11:14:18;3.78;;;2.85;;
54849;SDS011;47660;51.334;12.396;2023-06-26T11:16:44;4.57;;;3.50;;
54849;SDS011;47660;51.334;12.396;2023-06-26T11:19:10;3.58;;;2.78;;
54849;SDS011;47660;51.334;12.396;2023-06-26T11:21:39;5.50;;;2.80;;
54849;SDS011;47660;51.334;12.396;2023-06-26T11:24:08;5.82;;;3.05;;
54849;SDS011;47660;51.334;12.396;2023-06-26T11:26:38;4.18;;;3.03;;
54849;SDS011;47660;51.334;12.396;2023-06-26T11:29:04;4.97;;;2.63;;
54849;SDS011;47660;51.334;12.396;2023-06-26T11:31:33;3.75;;;2.90;;
54849;SDS011;47660;51.334;12.396;2023-06-26T11:36:41;3.03;;;2.67;;
54849;SDS011;47660;51.334;12.396;2023-06-26T11:39:12;4.07;;;3.05;;
54849;SDS011;47660;51.334;12.396;2023-06-26T11:41:38;4.93;;;3.25;;
54849;SDS011;47660;51.334;12.396;2023-06-26T11:44:08;5.03;;;2.83;;
54849;SDS011;47660;51.334;12.396;2023-06-26T11:46:39;3.20;;;2.90;;
54849;SDS011;47660;51.334;12.396;2023-06-26T11:49:07;3.70;;;2.63;;
54849;SDS011;47660;51.334;12.396;2023-06-26T11:51:33;4.82;;;2.88;;
54849;SDS011;47660;51.334;12.396;2023-06-26T11:54:02;4.97;;;3.00;;
54849;SDS011;47660;51.334;12.396;2023-06-26T11:56:31;5.40;;;3.10;;
54849;SDS011;47660;51.334;12.396;2023-06-26T12:01:33;4.05;;;3.15;;
54849;SDS011;47660;51.334;12.396;2023-06-26T12:04:00;3.97;;;3.10;;
54849;SDS011;47660;51.334;12.396;2023-06-26T12:06:32;4.95;;;2.92;;
54849;SDS011;47660;51.334;12.396;2023-06-26T12:09:10;4.00;;;3.10;;
54849;SDS011;47660;51.334;12.396;2023-06-26T12:11:38;5.05;;;2.95;;
54849;SDS011;47660;51.334;12.396;2023-06-26T12:14:08;5.65;;;3.03;;
54849;SDS011;47660;51.334;12.396;2023-06-26T12:16:34;4.18;;;3.08;;
54849;SDS011;47660;51.334;12.396;2023-06-26T12:19:01;4.10;;;3.03;;
54849;SDS011;47660;51.334;12.396;2023-06-26T12:24:03;3.15;;;2.83;;
54849;SDS011;47660;51.334;12.396;2023-06-26T12:26:35;3.30;;;2.70;;
54849;SDS011;47660;51.334;12.396;2023-06-26T12:29:09;3.83;;;2.55;;
54849;SDS011;47660;51.334;12.396;2023-06-26T12:31:39;6.40;;;2.78;;
54849;SDS011;47660;51.334;12.396;2023-06-26T12:34:11;3.92;;;2.88;;
54849;SDS011;47660;51.334;12.396;2023-06-26T12:36:47;4.55;;;3.10;;
54849;SDS011;47660;51.334;12.396;2023-06-26T12:39:15;4.40;;;3.03;;
54849;SDS011;47660;51.334;12.396;2023-06-26T12:41:53;5.00;;;2.90;;
54849;SDS011;47660;51.334;12.396;2023-06-26T12:44:30;3.60;;;2.50;;
54849;SDS011;47660;51.334;12.396;2023-06-26T12:47:01;4.05;;;2.88;;
54849;SDS011;47660;51.334;12.396;2023-06-26T12:49:34;4.78;;;2.97;;
54849;SDS011;47660;51.334;12.396;2023-06-26T12:52:01;4.35;;;2.95;;
54849;SDS011;47660;51.334;12.396;2023-06-26T12:54:28;3.67;;;2.53;;
54849;SDS011;47660;51.334;12.396;2023-06-26T12:56:54;3.65;;;3.08;;
54849;SDS011;47660;51.334;12.396;2023-06-26T12:59:22;7.82;;;3.38;;
54849;SDS011;47660;51.334;12.396;2023-06-26T13:01:48;4.78;;;2.88;;
54849;SDS011;47660;51.334;12.396;2023-06-26T13:04:16;3.33;;;2.78;;
54849;SDS011;47660;51.334;12.396;2023-06-26T13:06:41;3.95;;;3.05;;
54849;SDS011;47660;51.334;12.396;2023-06-26T13:09:07;3.90;;;2.83;;
54849;SDS011;47660;51.334;12.396;2023-06-26T13:11:36;3.63;;;3.22;;
54849;SDS011;47660;51.334;12.396;2023-06-26T13:14:05;3.83;;;2.78;;
54849;SDS011;47660;51.334;12.396;2023-06-26T13:16:30;3.53;;;3.15;;
54849;SDS011;47660;51.334;12.396;2023-06-26T13:18:57;3.45;;;2.97;;
54849;SDS011;47660;51.334;12.396;2023-06-26T13:21:26;3.50;;;2.70;;
54849;SDS011;47660;51.334;12.396;2023-06-26T13:23:52;3.20;;;2.90;;
54849;SDS011;47660;51.334;12.396;2023-06-26T13:26:18;10.23;;;3.45;;
54849;SDS011;47660;51.334;12.396;2023-06-26T13:28:44;7.28;;;3.20;;
54849;SDS011;47660;51.334;12.396;2023-06-26T13:31:20;3.53;;;2.88;;
54849;SDS011;47660;51.334;12.396;2023-06-26T13:33:46;4.00;;;3.00;;
54849;SDS011;47660;51.334;12.396;2023-06-26T13:36:17;4.95;;;3.40;;
54849;SDS011;47660;51.334;12.396;2023-06-26T13:38:45;4.55;;;3.00;;
54849;SDS011;47660;51.334;12.396;2023-06-26T13:41:20;6.22;;;2.90;;
54849;SDS011;47660;51.334;12.396;2023-06-26T13:43:48;4.47;;;2.80;;
54849;SDS011;47660;51.334;12.396;2023-06-26T13:46:15;4.40;;;3.00;;
54849;SDS011;47660;51.334;12.396;2023-06-26T13:48:41;3.63;;;2.42;;
54849;SDS011;47660;51.334;12.396;2023-06-26T13:51:11;6.43;;;2.97;;
54849;SDS011;47660;51.334;12.396;2023-06-26T13:53:36;4.75;;;3.03;;
54849;SDS011;47660;51.334;12.396;2023-06-26T13:56:05;4.53;;;3.17;;
54849;SDS011;47660;51.334;12.396;2023-06-26T13:58:34;5.53;;;3.15;;
54849;SDS011;47660;51.334;12.396;2023-06-26T14:01:00;5.90;;;3.00;;
54849;SDS011;47660;51.334;12.396;2023-06-26T14:03:29;3.47;;;2.70;;
54849;SDS011;47660;51.334;12.396;2023-06-26T14:05:54;3.38;;;2.55;;
54849;SDS011;47660;51.334;12.396;2023-06-26T14:08:22;3.55;;;2.80;;
54849;SDS011;47660;51.334;12.396;2023-06-26T14:10:50;8.00;;;4.15;;
54849;SDS011;47660;51.334;12.396;2023-06-26T14:13:18;10.27;;;6.00;;
54849;SDS011;47660;51.334;12.396;2023-06-26T14:15:46;6.57;;;4.50;;
54849;SDS011;47660;51.334;12.396;2023-06-26T14:18:18;10.75;;;4.82;;
54849;SDS011;47660;51.334;12.396;2023-06-26T14:20:44;5.50;;;4.35;;
54849;SDS011;47660;51.334;12.396;2023-06-26T14:23:10;6.03;;;4.38;;
54849;SDS011;47660;51.334;12.396;2023-06-26T14:25:35;10.00;;;4.95;;
54849;SDS011;47660;51.334;12.396;2023-06-26T14:28:04;9.40;;;4.78;;
54849;SDS011;47660;51.334;12.396;2023-06-26T14:30:29;8.65;;;5.60;;
54849;SDS011;47660;51.334;12.396;2023-06-26T14:33:02;6.95;;;4.65;;
54849;SDS011;47660;51.334;12.396;2023-06-26T14:35:28;7.38;;;5.45;;
54849;SDS011;47660;51.334;12.396;2023-06-26T14:37:53;8.45;;;5.72;;
54849;SDS011;47660;51.334;12.396;2023-06-26T14:40:26;10.35;;;6.03;;
54849;SDS011;47660;51.334;12.396;2023-06-26T14:42:57;10.73;;;5.10;;
54849;SDS011;47660;51.334;12.396;2023-06-26T14:45:23;7.90;;;4.93;;
54849;SDS011;47660;51.334;12.396;2023-06-26T14:47:48;10.98;;;5.32;;
54849;SDS011;47660;51.334;12.396;2023-06-26T14:50:14;6.93;;;4.82;;
54849;SDS011;47660;51.334;12.396;2023-06-26T14:52:39;8.70;;;6.25;;
54849;SDS011;47660;51.334;12.396;2023-06-26T14:55:05;7.38;;;4.82;;
54849;SDS011;47660;51.334;12.396;2023-06-26T14:57:30;8.20;;;4.82;;
54849;SDS011;47660;51.334;12.396;2023-06-26T14:59:56;6.15;;;5.00;;
54849;SDS011;47660;51.334;12.396;2023-06-26T15:02:21;7.10;;;5.07;;
54849;SDS011;47660;51.334;12.396;2023-06-26T15:04:49;11.45;;;5.07;;
54849;SDS011;47660;51.334;12.396;2023-06-26T15:07:20;9.75;;;4.75;;
54849;SDS011;47660;51.334;12.396;2023-06-26T15:09:50;6.00;;;5.03;;
54849;SDS011;47660;51.334;12.396;2023-06-26T15:12:15;7.40;;;4.53;;